createdAt,value
2022-12-09T00:00:45.688Z,18.10
2022-12-09T00:01:46.986Z,16.70
2022-12-09T00:02:46.009Z,16.90
2022-12-09T00:03:45.767Z,17.40
2022-12-09T00:04:45.836Z,16.80
2022-12-09T00:05:45.691Z,16.80
2022-12-09T00:06:45.647Z,15.00
2022-12-09T00:07:45.868Z,17.20
2022-12-09T00:08:45.880Z,17.00
2022-12-09T00:09:45.843Z,18.30
2022-12-09T00:10:45.650Z,16.50
2022-12-09T00:11:45.773Z,16.80
2022-12-09T00:12:45.633Z,21.90
2022-12-09T00:13:45.851Z,20.90
2022-12-09T00:14:45.655Z,20.80
2022-12-09T00:15:45.624Z,18.00
2022-12-09T00:16:45.912Z,19.60
2022-12-09T00:17:45.707Z,17.40
2022-12-09T00:18:45.812Z,19.90
2022-12-09T00:19:45.563Z,18.20
2022-12-09T00:20:45.573Z,19.40
2022-12-09T00:21:45.760Z,21.50
2022-12-09T00:22:45.532Z,23.10
2022-12-09T00:23:45.532Z,22.60
2022-12-09T00:24:45.547Z,16.90
2022-12-09T00:25:45.563Z,16.70
2022-12-09T00:26:45.686Z,17.30
2022-12-09T00:27:45.778Z,16.90
2022-12-09T00:28:45.517Z,16.30
2022-12-09T00:29:45.553Z,17.50
2022-12-09T00:30:45.744Z,17.10
2022-12-09T00:31:45.826Z,22.50
2022-12-09T00:32:45.607Z,16.20
2022-12-09T00:33:45.581Z,19.00
2022-12-09T00:34:45.447Z,17.30
2022-12-09T00:35:45.519Z,16.60
2022-12-09T00:36:45.553Z,16.90
2022-12-09T00:37:45.622Z,17.70
2022-12-09T00:38:45.689Z,16.40
2022-12-09T00:39:45.423Z,19.50
2022-12-09T00:40:45.433Z,20.30
2022-12-09T00:41:45.667Z,20.70
2022-12-09T00:42:45.421Z,16.30
2022-12-09T00:43:45.454Z,16.20
2022-12-09T00:44:45.390Z,16.40
2022-12-09T00:45:45.425Z,16.60
2022-12-09T00:46:45.513Z,17.00
2022-12-09T00:47:45.755Z,17.50
2022-12-09T00:48:45.479Z,17.70
2022-12-09T00:49:45.379Z,18.80
2022-12-09T00:50:45.364Z,22.10
2022-12-09T00:51:45.519Z,17.70
2022-12-09T00:52:45.414Z,19.00
2022-12-09T00:53:45.415Z,22.00
2022-12-09T00:54:45.672Z,20.70
2022-12-09T00:55:45.543Z,25.10
2022-12-09T00:56:45.335Z,17.90
2022-12-09T00:57:45.526Z,18.50
2022-12-09T00:58:45.354Z,19.50
2022-12-09T00:59:45.514Z,19.40
2022-12-09T01:00:45.620Z,18.30
2022-12-09T01:01:45.373Z,18.10
2022-12-09T01:02:45.417Z,18.20
2022-12-09T01:03:45.396Z,18.30
2022-12-09T01:04:45.419Z,18.00
2022-12-09T01:05:45.382Z,24.60
2022-12-09T01:06:45.331Z,18.00
2022-12-09T01:07:45.405Z,19.10
2022-12-09T01:08:45.910Z,20.40
2022-12-09T01:09:46.552Z,18.80
2022-12-09T01:10:45.341Z,19.50
2022-12-09T01:11:45.239Z,27.30
2022-12-09T01:12:45.459Z,20.80
2022-12-09T01:13:45.293Z,22.50
2022-12-09T01:14:45.234Z,20.70
2022-12-09T01:15:45.392Z,24.30
2022-12-09T01:16:45.511Z,19.50
2022-12-09T01:17:45.496Z,22.60
2022-12-09T01:18:45.201Z,19.80
2022-12-09T01:19:45.184Z,20.60
2022-12-09T01:20:45.199Z,26.70
2022-12-09T01:21:45.198Z,23.30
2022-12-09T01:22:45.490Z,24.10
2022-12-09T01:23:45.166Z,22.20
2022-12-09T01:24:45.146Z,21.00
2022-12-09T01:25:45.429Z,22.80
2022-12-09T01:26:45.216Z,19.20
2022-12-09T01:27:45.122Z,18.60
2022-12-09T01:28:45.114Z,18.60
2022-12-09T01:29:45.114Z,21.10
2022-12-09T01:30:45.123Z,22.60
2022-12-09T01:31:45.343Z,17.70
2022-12-09T01:32:45.483Z,19.00
2022-12-09T01:33:45.388Z,19.50
2022-12-09T01:34:45.128Z,18.70
2022-12-09T01:35:45.232Z,17.50
2022-12-09T01:36:45.385Z,18.20
2022-12-09T01:37:45.130Z,17.90
2022-12-09T01:38:45.081Z,16.70
2022-12-09T01:39:45.165Z,17.90
2022-12-09T01:40:45.035Z,16.10
2022-12-09T01:41:45.035Z,17.10
2022-12-09T01:42:45.146Z,18.30
2022-12-09T01:43:45.282Z,18.00
2022-12-09T01:44:45.054Z,21.80
2022-12-09T01:45:45.015Z,18.70
2022-12-09T01:46:45.420Z,18.60
2022-12-09T01:47:45.231Z,18.80
2022-12-09T01:48:45.382Z,18.10
2022-12-09T01:49:45.160Z,19.30
2022-12-09T01:50:45.194Z,16.80
2022-12-09T01:51:45.173Z,16.80
2022-12-09T01:52:45.237Z,17.10
2022-12-09T01:53:45.227Z,17.10
2022-12-09T01:54:44.953Z,22.80
2022-12-09T01:55:46.323Z,49.20
2022-12-09T01:56:45.056Z,61.70
2022-12-09T01:57:45.118Z,43.00
2022-12-09T01:58:45.263Z,35.30
2022-12-09T01:59:44.928Z,19.50
2022-12-09T02:00:45.212Z,17.60
2022-12-09T02:01:45.058Z,26.90
2022-12-09T02:02:45.402Z,19.50
2022-12-09T02:03:45.621Z,19.30
2022-12-09T02:04:45.299Z,18.60
2022-12-09T02:05:44.887Z,17.60
2022-12-09T02:06:45.073Z,21.20
2022-12-09T02:07:45.148Z,19.30
2022-12-09T02:08:45.058Z,19.90
2022-12-09T02:09:44.988Z,18.60
2022-12-09T02:10:44.908Z,18.50
2022-12-09T02:11:44.858Z,23.30
2022-12-09T02:12:44.843Z,22.40
2022-12-09T02:13:45.037Z,19.30
2022-12-09T02:14:44.866Z,17.80
2022-12-09T02:15:45.332Z,18.10
2022-12-09T02:16:44.957Z,32.10
2022-12-09T02:17:45.321Z,20.30
2022-12-09T02:18:45.001Z,26.10
2022-12-09T02:19:45.084Z,20.50
2022-12-09T02:20:44.859Z,26.80
2022-12-09T02:21:44.802Z,21.40
2022-12-09T02:22:44.831Z,22.90
2022-12-09T02:23:44.782Z,27.70
2022-12-09T02:24:44.986Z,21.80
2022-12-09T02:25:44.785Z,21.50
2022-12-09T02:26:44.751Z,26.10
2022-12-09T02:27:45.108Z,32.50
2022-12-09T02:28:44.785Z,24.30
2022-12-09T02:29:44.754Z,28.80
2022-12-09T02:30:44.793Z,32.10
2022-12-09T02:31:44.835Z,23.20
2022-12-09T02:32:44.876Z,28.80
2022-12-09T02:33:45.070Z,24.30
2022-12-09T02:34:44.861Z,21.20
2022-12-09T02:35:45.074Z,22.00
2022-12-09T02:36:44.794Z,25.80
2022-12-09T02:37:44.708Z,21.20
2022-12-09T02:38:45.063Z,26.50
2022-12-09T02:39:44.729Z,20.10
2022-12-09T02:40:44.657Z,24.70
2022-12-09T02:41:44.720Z,25.60
2022-12-09T02:42:44.848Z,21.30
2022-12-09T02:43:49.649Z,20.00
2022-12-09T02:44:46.651Z,26.30
2022-12-09T02:45:44.678Z,28.50
2022-12-09T02:46:45.024Z,23.30
2022-12-09T02:47:44.852Z,22.60
2022-12-09T02:48:44.730Z,28.70
2022-12-09T02:49:44.816Z,24.20
2022-12-09T02:50:44.599Z,29.50
2022-12-09T02:51:44.828Z,20.70
2022-12-09T02:52:44.631Z,25.70
2022-12-09T02:53:44.635Z,22.50
2022-12-09T02:54:44.577Z,20.00
2022-12-09T02:55:44.589Z,20.90
2022-12-09T02:56:44.668Z,17.70
2022-12-09T02:57:44.663Z,18.60
2022-12-09T02:58:44.600Z,17.90
2022-12-09T02:59:44.552Z,23.80
2022-12-09T03:00:44.893Z,18.60
2022-12-09T03:01:44.744Z,19.00
2022-12-09T03:02:44.943Z,18.70
2022-12-09T03:03:44.688Z,21.20
2022-12-09T03:04:44.628Z,17.80
2022-12-09T03:05:44.521Z,19.20
2022-12-09T03:06:44.531Z,20.70
2022-12-09T03:07:44.773Z,16.60
2022-12-09T03:08:44.770Z,17.00
2022-12-09T03:09:44.544Z,15.70
2022-12-09T03:10:44.634Z,18.30
2022-12-09T03:11:44.503Z,21.30
2022-12-09T03:12:44.474Z,17.80
2022-12-09T03:13:44.515Z,17.80
2022-12-09T03:14:44.654Z,20.00
2022-12-09T03:15:44.436Z,16.70
2022-12-09T03:16:44.750Z,21.30
2022-12-09T03:17:44.567Z,19.80
2022-12-09T03:18:44.619Z,21.20
2022-12-09T03:19:44.647Z,18.80
2022-12-09T03:20:44.669Z,18.90
2022-12-09T03:21:44.784Z,22.50
2022-12-09T03:22:44.392Z,19.30
2022-12-09T03:23:44.500Z,19.10
2022-12-09T03:24:44.440Z,25.00
2022-12-09T03:25:44.456Z,24.30
2022-12-09T03:26:44.428Z,27.10
2022-12-09T03:27:44.393Z,22.90
2022-12-09T03:28:44.366Z,27.30
2022-12-09T03:29:44.567Z,26.00
2022-12-09T03:30:44.641Z,24.90
2022-12-09T03:31:44.535Z,25.90
2022-12-09T03:32:44.489Z,21.20
2022-12-09T03:33:44.622Z,18.80
2022-12-09T03:34:44.392Z,19.70
2022-12-09T03:35:44.659Z,18.70
2022-12-09T03:36:44.477Z,17.80
2022-12-09T03:37:44.318Z,24.10
2022-12-09T03:38:44.506Z,21.60
2022-12-09T03:39:44.501Z,20.80
2022-12-09T03:40:44.581Z,23.20
2022-12-09T03:41:44.441Z,20.00
2022-12-09T03:42:44.286Z,23.80
2022-12-09T03:43:44.420Z,20.30
2022-12-09T03:44:44.330Z,18.90
2022-12-09T03:45:44.335Z,21.10
2022-12-09T03:46:44.496Z,20.40
2022-12-09T03:47:44.527Z,20.00
2022-12-09T03:48:44.317Z,23.30
2022-12-09T03:49:44.282Z,20.50
2022-12-09T03:50:44.420Z,25.00
2022-12-09T03:51:44.468Z,22.90
2022-12-09T03:52:44.326Z,19.20
2022-12-09T03:53:44.311Z,18.80
2022-12-09T03:54:44.595Z,21.00
2022-12-09T03:55:44.446Z,18.50
2022-12-09T03:56:44.206Z,18.80
2022-12-09T03:57:44.251Z,19.60
2022-12-09T03:58:44.554Z,21.70
2022-12-09T03:59:44.323Z,17.50
2022-12-09T04:00:44.690Z,21.10
2022-12-09T04:01:44.522Z,17.40
2022-12-09T04:02:44.577Z,17.40
2022-12-09T04:03:44.340Z,18.30
2022-12-09T04:04:44.456Z,19.70
2022-12-09T04:05:44.175Z,19.60
2022-12-09T04:06:44.296Z,33.90
2022-12-09T04:07:44.846Z,20.70
2022-12-09T04:08:45.240Z,18.10
2022-12-09T04:09:44.618Z,21.80
2022-12-09T04:10:44.267Z,19.30
2022-12-09T04:11:45.261Z,24.50
2022-12-09T04:12:44.130Z,17.40
2022-12-09T04:13:44.116Z,18.60
2022-12-09T04:14:44.272Z,19.60
2022-12-09T04:15:44.321Z,20.40
2022-12-09T04:16:44.455Z,29.40
2022-12-09T04:17:44.098Z,19.30
2022-12-09T04:18:44.252Z,25.10
2022-12-09T04:19:44.080Z,21.50
2022-12-09T04:20:44.077Z,24.40
2022-12-09T04:21:44.104Z,25.20
2022-12-09T04:22:44.044Z,27.60
2022-12-09T04:23:44.200Z,24.20
2022-12-09T04:24:44.132Z,25.10
2022-12-09T04:25:44.072Z,30.70
2022-12-09T04:26:44.298Z,22.90
2022-12-09T04:27:45.037Z,31.40
2022-12-09T04:28:44.128Z,25.10
2022-12-09T04:29:44.141Z,23.30
2022-12-09T04:30:44.137Z,24.70
2022-12-09T04:31:44.058Z,24.70
2022-12-09T04:32:44.061Z,25.70
2022-12-09T04:33:44.072Z,22.80
2022-12-09T04:34:44.176Z,23.40
2022-12-09T04:35:44.300Z,20.90
2022-12-09T04:36:44.401Z,22.70
2022-12-09T04:37:43.962Z,20.90
2022-12-09T04:38:44.185Z,21.30
2022-12-09T04:39:44.218Z,19.10
2022-12-09T04:40:44.182Z,26.10
2022-12-09T04:41:43.990Z,20.70
2022-12-09T04:42:44.228Z,21.40
2022-12-09T04:43:43.994Z,18.70
2022-12-09T04:44:43.931Z,18.30
2022-12-09T04:45:44.110Z,18.10
2022-12-09T04:46:44.287Z,18.40
2022-12-09T04:47:44.029Z,17.70
2022-12-09T04:48:43.898Z,19.10
2022-12-09T04:49:44.114Z,18.30
2022-12-09T04:50:44.198Z,21.90
2022-12-09T04:51:43.964Z,18.00
2022-12-09T04:52:44.010Z,18.50
2022-12-09T04:53:43.859Z,18.10
2022-12-09T04:54:44.047Z,20.20
2022-12-09T04:55:43.849Z,18.30
2022-12-09T04:56:43.907Z,22.10
2022-12-09T04:57:43.876Z,20.50
2022-12-09T04:58:44.221Z,20.70
2022-12-09T04:59:44.082Z,20.60
2022-12-09T05:00:43.827Z,20.70
2022-12-09T05:01:44.284Z,24.70
2022-12-09T05:02:44.192Z,22.10
2022-12-09T05:03:44.236Z,23.70
2022-12-09T05:04:43.997Z,26.20
2022-12-09T05:05:43.920Z,23.90
2022-12-09T05:06:44.215Z,26.70
2022-12-09T05:07:44.173Z,24.70
2022-12-09T05:08:43.988Z,22.20
2022-12-09T05:09:43.855Z,21.50
2022-12-09T05:10:43.818Z,20.20
2022-12-09T05:11:43.794Z,28.20
2022-12-09T05:12:43.737Z,23.20
2022-12-09T05:13:43.787Z,25.90
2022-12-09T05:14:43.758Z,25.60
2022-12-09T05:15:43.784Z,21.90
2022-12-09T05:16:44.079Z,25.80
2022-12-09T05:17:43.787Z,26.60
2022-12-09T05:18:43.965Z,30.20
2022-12-09T05:19:43.737Z,29.90
2022-12-09T05:20:43.942Z,25.20
2022-12-09T05:21:44.086Z,27.40
2022-12-09T05:22:44.049Z,29.40
2022-12-09T05:23:43.781Z,28.10
2022-12-09T05:24:43.847Z,29.20
2022-12-09T05:25:43.910Z,25.20
2022-12-09T05:26:44.011Z,22.90
2022-12-09T05:27:43.969Z,18.70
2022-12-09T05:28:43.789Z,21.90
2022-12-09T05:29:43.761Z,18.90
2022-12-09T05:30:43.796Z,20.30
2022-12-09T05:31:44.020Z,23.40
2022-12-09T05:32:44.106Z,24.20
2022-12-09T05:33:44.065Z,18.70
2022-12-09T05:34:43.753Z,19.50
2022-12-09T05:35:52.188Z,18.20
2022-12-09T05:36:45.652Z,18.40
2022-12-09T05:37:43.736Z,25.60
2022-12-09T05:38:43.800Z,30.50
2022-12-09T05:39:43.668Z,33.30
2022-12-09T05:40:43.801Z,34.40
2022-12-09T05:41:43.586Z,35.40
2022-12-09T05:42:44.027Z,29.80
2022-12-09T05:43:43.584Z,28.90
2022-12-09T05:44:43.842Z,31.80
2022-12-09T05:45:43.854Z,31.20
2022-12-09T05:46:43.582Z,26.40
2022-12-09T05:47:44.058Z,29.60
2022-12-09T05:48:44.165Z,30.20
2022-12-09T05:49:43.922Z,29.90
2022-12-09T05:50:43.919Z,26.00
2022-12-09T05:51:44.908Z,24.30
2022-12-09T05:52:43.866Z,27.00
2022-12-09T05:53:43.822Z,22.60
2022-12-09T05:54:43.813Z,28.10
2022-12-09T05:55:43.676Z,35.30
2022-12-09T05:56:48.068Z,33.70
2022-12-09T05:57:45.967Z,31.50
2022-12-09T05:58:43.790Z,35.00
2022-12-09T05:59:43.717Z,24.70
2022-12-09T06:00:43.677Z,30.40
2022-12-09T06:01:43.964Z,31.30
2022-12-09T06:02:43.565Z,24.00
2022-12-09T06:03:43.927Z,23.60
2022-12-09T06:04:43.763Z,23.10
2022-12-09T06:05:43.661Z,21.80
2022-12-09T06:06:43.599Z,23.00
2022-12-09T06:07:43.979Z,21.50
2022-12-09T06:08:44.604Z,21.60
2022-12-09T06:09:43.576Z,20.10
2022-12-09T06:10:43.510Z,19.90
2022-12-09T06:11:43.758Z,20.20
2022-12-09T06:12:43.644Z,24.30
2022-12-09T06:13:43.489Z,38.00
2022-12-09T06:14:43.724Z,35.50
2022-12-09T06:15:43.769Z,49.50
2022-12-09T06:16:43.450Z,56.70
2022-12-09T06:17:43.452Z,49.80
2022-12-09T06:18:43.758Z,54.90
2022-12-09T06:19:43.810Z,54.90
2022-12-09T06:20:43.789Z,59.40
2022-12-09T06:21:43.688Z,68.00
2022-12-09T06:22:43.634Z,60.20
2022-12-09T06:23:43.576Z,73.30
2022-12-09T06:24:43.376Z,110.80
2022-12-09T06:25:43.528Z,53.40
2022-12-09T06:26:43.586Z,72.00
2022-12-09T06:27:43.322Z,89.60
2022-12-09T06:28:43.446Z,125.90
2022-12-09T06:29:43.551Z,138.70
2022-12-09T06:30:43.498Z,122.70
2022-12-09T06:31:43.607Z,86.10
2022-12-09T06:32:43.724Z,95.20
2022-12-09T06:33:54.834Z,83.10
2022-12-09T06:34:45.678Z,82.90
2022-12-09T06:35:43.377Z,60.60
2022-12-09T06:36:43.570Z,71.20
2022-12-09T06:37:43.603Z,78.30
2022-12-09T06:38:43.333Z,59.20
2022-12-09T06:39:43.230Z,41.10
2022-12-09T06:40:43.266Z,20.60
2022-12-09T06:41:43.498Z,21.70
2022-12-09T06:42:43.264Z,21.20
2022-12-09T06:43:43.339Z,20.60
2022-12-09T06:44:43.231Z,19.30
2022-12-09T06:45:43.465Z,34.80
2022-12-09T06:46:43.644Z,42.80
2022-12-09T06:47:43.697Z,32.20
2022-12-09T06:48:43.742Z,23.30
2022-12-09T06:49:43.595Z,24.60
2022-12-09T06:50:43.459Z,23.00
2022-12-09T06:51:43.373Z,30.70
2022-12-09T06:52:43.551Z,24.80
2022-12-09T06:53:43.540Z,25.30
2022-12-09T06:54:43.239Z,27.50
2022-12-09T06:55:43.525Z,32.00
2022-12-09T06:56:43.216Z,32.20
2022-12-09T06:57:43.323Z,22.70
2022-12-09T06:58:43.251Z,24.70
2022-12-09T06:59:43.454Z,22.40
2022-12-09T07:00:43.640Z,21.90
2022-12-09T07:01:43.730Z,21.90
2022-12-09T07:02:43.689Z,20.40
2022-12-09T07:03:43.728Z,22.60
2022-12-09T07:04:43.489Z,20.20
2022-12-09T07:05:43.402Z,19.70
2022-12-09T07:06:43.518Z,18.90
2022-12-09T07:07:43.413Z,19.00
2022-12-09T07:08:43.469Z,19.50
2022-12-09T07:09:43.475Z,23.20
2022-12-09T07:10:43.120Z,29.60
2022-12-09T07:11:43.260Z,25.50
2022-12-09T07:12:43.168Z,23.50
2022-12-09T07:13:43.163Z,22.40
2022-12-09T07:14:43.138Z,20.70
2022-12-09T07:15:43.350Z,25.40
2022-12-09T07:16:43.121Z,28.00
2022-12-09T07:17:43.218Z,28.20
2022-12-09T07:18:43.191Z,31.40
2022-12-09T07:19:43.213Z,30.50
2022-12-09T07:20:43.018Z,28.00
2022-12-09T07:21:43.045Z,28.30
2022-12-09T07:22:43.140Z,31.80
2022-12-09T07:23:43.009Z,30.60
2022-12-09T07:24:43.259Z,28.50
2022-12-09T07:25:43.419Z,33.20
2022-12-09T07:26:43.395Z,39.20
2022-12-09T07:27:43.022Z,36.70
2022-12-09T07:28:43.493Z,36.10
2022-12-09T07:29:43.287Z,37.00
2022-12-09T07:30:43.348Z,35.20
2022-12-09T07:31:43.098Z,32.00
2022-12-09T07:32:42.966Z,28.80
2022-12-09T07:33:43.120Z,30.20
2022-12-09T07:34:43.252Z,31.40
2022-12-09T07:35:43.252Z,27.10
2022-12-09T07:36:43.344Z,28.60
2022-12-09T07:37:43.307Z,27.00
2022-12-09T07:38:43.279Z,24.40
2022-12-09T07:39:43.063Z,25.20
2022-12-09T07:40:43.105Z,28.50
2022-12-09T07:41:43.336Z,22.30
2022-12-09T07:42:44.091Z,28.80
2022-12-09T07:43:43.319Z,25.10
2022-12-09T07:44:43.059Z,22.80
2022-12-09T07:45:43.396Z,23.40
2022-12-09T07:46:43.145Z,27.40
2022-12-09T07:47:43.171Z,26.40
2022-12-09T07:48:43.391Z,24.30
2022-12-09T07:49:42.993Z,26.00
2022-12-09T07:50:42.838Z,23.90
2022-12-09T07:51:43.293Z,24.00
2022-12-09T07:52:42.838Z,22.10
2022-12-09T07:53:43.203Z,22.80
2022-12-09T07:54:42.906Z,20.60
2022-12-09T07:55:42.844Z,19.70
2022-12-09T07:56:42.978Z,18.50
2022-12-09T07:57:43.026Z,21.80
2022-12-09T07:58:43.150Z,26.10
2022-12-09T07:59:42.840Z,21.00
2022-12-09T08:00:42.885Z,18.30
2022-12-09T08:01:43.008Z,19.00
2022-12-09T08:02:42.835Z,23.80
2022-12-09T08:03:43.361Z,20.00
2022-12-09T08:04:43.190Z,19.60
2022-12-09T08:05:43.265Z,24.50
2022-12-09T08:06:42.907Z,23.90
2022-12-09T08:07:44.740Z,19.30
2022-12-09T08:08:44.252Z,24.20
2022-12-09T08:09:43.074Z,20.10
2022-12-09T08:10:43.309Z,20.70
2022-12-09T08:11:42.936Z,28.00
2022-12-09T08:12:43.153Z,35.50
2022-12-09T08:13:43.094Z,25.90
2022-12-09T08:14:42.789Z,22.00
2022-12-09T08:15:44.046Z,25.00
2022-12-09T08:16:43.560Z,22.80
2022-12-09T08:17:42.771Z,28.00
2022-12-09T08:18:43.079Z,28.60
2022-12-09T08:19:42.959Z,42.40
2022-12-09T08:20:42.843Z,32.10
2022-12-09T08:21:42.792Z,37.30
2022-12-09T08:22:42.738Z,45.90
2022-12-09T08:23:42.781Z,41.90
2022-12-09T08:24:42.764Z,38.90
2022-12-09T08:25:42.726Z,48.90
2022-12-09T08:26:43.270Z,68.10
2022-12-09T08:27:42.742Z,67.80
2022-12-09T08:28:42.924Z,57.40
2022-12-09T08:29:42.872Z,81.30
2022-12-09T08:30:42.912Z,72.40
2022-12-09T08:31:42.904Z,72.60
2022-12-09T08:32:42.802Z,135.00
2022-12-09T08:33:42.884Z,260.90
2022-12-09T08:34:42.897Z,246.70
2022-12-09T08:35:42.662Z,373.50
2022-12-09T08:36:42.689Z,123.70
2022-12-09T08:37:42.595Z,140.30
2022-12-09T08:38:43.629Z,92.70
2022-12-09T08:39:42.635Z,103.90
2022-12-09T08:40:43.005Z,82.60
2022-12-09T08:41:42.606Z,89.90
2022-12-09T08:42:42.603Z,94.60
2022-12-09T08:43:43.661Z,126.40
2022-12-09T08:44:42.877Z,75.60
2022-12-09T08:45:42.719Z,87.70
2022-12-09T08:46:42.847Z,104.90
2022-12-09T08:47:42.815Z,141.00
2022-12-09T08:48:42.678Z,91.60
2022-12-09T08:49:42.827Z,120.60
2022-12-09T08:50:42.780Z,123.90
2022-12-09T08:51:42.843Z,163.40
2022-12-09T08:52:43.014Z,114.10
2022-12-09T08:53:42.868Z,150.20
2022-12-09T08:54:42.509Z,101.90
2022-12-09T08:55:42.992Z,231.00
2022-12-09T08:56:42.758Z,184.00
2022-12-09T08:57:42.541Z,184.70
2022-12-09T08:58:42.553Z,154.40
2022-12-09T08:59:45.390Z,133.10
2022-12-09T09:00:44.015Z,130.90
2022-12-09T09:01:42.476Z,156.10
2022-12-09T09:02:43.101Z,129.80
2022-12-09T09:03:42.848Z,133.80
2022-12-09T09:04:42.713Z,111.50
2022-12-09T09:05:42.580Z,117.30
2022-12-09T09:06:42.564Z,130.50
2022-12-09T09:07:42.882Z,210.60
2022-12-09T09:08:42.457Z,201.00
2022-12-09T09:09:43.032Z,198.50
2022-12-09T09:10:42.549Z,119.80
2022-12-09T09:11:42.607Z,188.20
2022-12-09T09:12:43.988Z,159.20
2022-12-09T09:13:43.566Z,155.60
2022-12-09T09:14:42.706Z,128.10
2022-12-09T09:15:42.502Z,114.20
2022-12-09T09:16:43.037Z,110.10
2022-12-09T09:17:48.051Z,115.90
2022-12-09T09:18:44.742Z,150.20
2022-12-09T09:19:42.561Z,148.60
2022-12-09T09:20:42.863Z,135.20
2022-12-09T09:21:42.482Z,211.00
2022-12-09T09:22:42.406Z,212.40
2022-12-09T09:23:42.816Z,199.30
2022-12-09T09:24:42.460Z,280.10
2022-12-09T09:25:42.749Z,234.40
2022-12-09T09:26:42.614Z,223.50
2022-12-09T09:27:42.710Z,208.00
2022-12-09T09:28:42.544Z,156.10
2022-12-09T09:29:42.535Z,124.60
2022-12-09T09:30:42.583Z,183.80
2022-12-09T09:31:42.411Z,145.80
2022-12-09T09:32:42.373Z,163.80
2022-12-09T09:33:42.729Z,118.20
2022-12-09T09:34:42.663Z,175.70
2022-12-09T09:35:42.446Z,109.40
2022-12-09T09:36:42.344Z,115.20
2022-12-09T09:37:42.472Z,159.90
2022-12-09T09:38:42.581Z,153.70
2022-12-09T09:39:42.621Z,126.20
2022-12-09T09:40:42.343Z,146.10
2022-12-09T09:41:42.687Z,141.90
2022-12-09T09:42:42.217Z,138.90
2022-12-09T09:43:42.207Z,145.20
2022-12-09T09:44:42.576Z,124.90
2022-12-09T09:45:42.557Z,110.70
2022-12-09T09:46:42.376Z,109.30
2022-12-09T09:47:42.404Z,107.60
2022-12-09T09:48:42.429Z,97.10
2022-12-09T09:49:42.286Z,100.30
2022-12-09T09:50:42.724Z,108.70
2022-12-09T09:51:42.153Z,99.10
2022-12-09T09:52:42.198Z,100.20
2022-12-09T09:53:42.439Z,95.30
2022-12-09T09:54:42.358Z,91.90
2022-12-09T09:55:42.430Z,105.20
2022-12-09T09:56:42.419Z,96.20
2022-12-09T09:57:42.445Z,96.80
2022-12-09T09:58:42.212Z,98.40
2022-12-09T09:59:42.280Z,93.60
2022-12-09T10:00:42.484Z,91.00
2022-12-09T10:01:42.213Z,100.00
2022-12-09T10:02:42.717Z,103.40
2022-12-09T10:03:42.857Z,90.10
2022-12-09T10:04:42.453Z,92.50
2022-12-09T10:05:42.537Z,92.30
2022-12-09T10:06:42.528Z,90.10
2022-12-09T10:07:42.586Z,88.50
2022-12-09T10:08:42.672Z,91.60
2022-12-09T10:09:42.509Z,92.40
2022-12-09T10:10:42.434Z,86.00
2022-12-09T10:11:42.276Z,89.10
2022-12-09T10:12:42.569Z,86.00
2022-12-09T10:13:42.259Z,87.10
2022-12-09T10:14:42.331Z,80.20
2022-12-09T10:15:42.200Z,79.90
2022-12-09T10:16:42.615Z,80.80
2022-12-09T10:17:42.233Z,80.80
2022-12-09T10:18:42.245Z,72.50
2022-12-09T10:19:42.583Z,75.90
2022-12-09T10:20:42.417Z,66.80
2022-12-09T10:21:42.446Z,68.90
2022-12-09T10:22:42.306Z,73.70
2022-12-09T10:23:42.099Z,83.60
2022-12-09T10:24:42.378Z,80.70
2022-12-09T10:25:42.103Z,81.70
2022-12-09T10:26:41.985Z,83.60
2022-12-09T10:27:42.018Z,79.20
2022-12-09T10:28:42.487Z,82.70
2022-12-09T10:29:42.166Z,78.30
2022-12-09T10:30:44.700Z,87.40
2022-12-09T10:31:42.992Z,84.60
2022-12-09T10:32:42.231Z,79.10
2022-12-09T10:33:42.130Z,88.90
2022-12-09T10:34:42.540Z,117.10
2022-12-09T10:35:42.494Z,118.50
2022-12-09T10:36:42.041Z,100.70
2022-12-09T10:37:42.332Z,91.10
2022-12-09T10:38:42.037Z,84.40
2022-12-09T10:39:41.991Z,80.90
2022-12-09T10:40:43.013Z,81.50
2022-12-09T10:41:42.223Z,87.80
2022-12-09T10:42:42.348Z,94.40
2022-12-09T10:43:42.014Z,82.70
2022-12-09T10:44:41.939Z,97.60
2022-12-09T10:46:15.671Z,87.90
2022-12-09T10:46:44.238Z,87.00
2022-12-09T10:47:42.957Z,87.00
2022-12-09T10:48:42.251Z,87.50
2022-12-09T10:49:42.285Z,88.90
2022-12-09T10:50:42.049Z,90.90
2022-12-09T10:51:42.359Z,84.80
2022-12-09T10:52:41.841Z,84.40
2022-12-09T10:53:41.994Z,83.30
2022-12-09T10:54:41.798Z,90.30
2022-12-09T10:55:41.975Z,89.40
2022-12-09T10:56:41.938Z,93.90
2022-12-09T10:57:41.968Z,82.70
2022-12-09T10:58:42.143Z,85.70
2022-12-09T10:59:41.817Z,85.90
2022-12-09T11:00:41.939Z,96.70
2022-12-09T11:01:42.297Z,88.60
2022-12-09T11:02:42.017Z,79.60
2022-12-09T11:03:42.311Z,83.20
2022-12-09T11:04:42.083Z,79.00
2022-12-09T11:05:42.204Z,81.40
2022-12-09T11:06:42.079Z,83.10
2022-12-09T11:07:42.031Z,79.50
2022-12-09T11:08:41.882Z,92.80
2022-12-09T11:09:41.903Z,100.00
2022-12-09T11:10:42.078Z,113.70
2022-12-09T11:11:42.086Z,94.60
2022-12-09T11:12:42.405Z,123.00
2022-12-09T11:13:41.983Z,89.00
2022-12-09T11:14:42.118Z,88.00
2022-12-09T11:15:42.017Z,101.40
2022-12-09T11:16:41.809Z,98.40
2022-12-09T11:17:42.204Z,69.80
2022-12-09T11:18:41.968Z,71.20
2022-12-09T11:19:41.854Z,83.60
2022-12-09T11:20:42.975Z,69.20
2022-12-09T11:21:42.272Z,71.90
2022-12-09T11:22:42.703Z,73.80
2022-12-09T11:23:41.790Z,68.50
2022-12-09T11:24:41.787Z,64.80
2022-12-09T11:25:41.962Z,51.60
2022-12-09T11:26:41.950Z,48.90
2022-12-09T11:27:42.057Z,24.90
2022-12-09T11:28:41.957Z,28.60
2022-12-09T11:29:41.763Z,44.80
2022-12-09T11:30:57.792Z,28.50
2022-12-09T11:31:43.749Z,37.90
2022-12-09T11:32:41.728Z,41.70
2022-12-09T11:33:41.743Z,32.60
2022-12-09T11:34:41.793Z,37.40
2022-12-09T11:35:41.912Z,44.50
2022-12-09T11:36:43.963Z,70.20
2022-12-09T11:37:42.540Z,66.70
2022-12-09T11:38:41.554Z,69.40
2022-12-09T11:39:41.566Z,63.20
2022-12-09T11:40:41.528Z,59.50
2022-12-09T11:41:41.604Z,143.10
2022-12-09T11:42:41.511Z,77.80
2022-12-09T11:43:41.584Z,78.50
2022-12-09T11:44:41.517Z,46.80
2022-12-09T11:45:41.492Z,35.00
2022-12-09T11:46:41.544Z,39.40
2022-12-09T11:48:44.101Z,112.30
2022-12-09T11:49:42.590Z,46.10
2022-12-09T11:50:42.717Z,153.90
2022-12-09T11:51:41.521Z,109.30
2022-12-09T11:52:41.786Z,132.60
2022-12-09T11:53:41.442Z,368.10
2022-12-09T11:54:41.513Z,435.40
2022-12-09T11:55:41.430Z,86.70
2022-12-09T11:56:41.471Z,51.00
2022-12-09T11:57:41.446Z,59.10
2022-12-09T11:58:41.487Z,60.40
2022-12-09T11:59:41.531Z,57.40
2022-12-09T12:00:41.468Z,61.60
2022-12-09T12:01:41.497Z,93.10
2022-12-09T12:02:41.423Z,60.20
2022-12-09T12:03:41.397Z,39.40
2022-12-09T12:04:41.388Z,40.20
2022-12-09T12:05:41.377Z,27.80
2022-12-09T12:06:41.385Z,26.90
2022-12-09T12:07:41.430Z,25.90
2022-12-09T12:08:41.549Z,28.30
2022-12-09T12:09:41.340Z,24.30
2022-12-09T12:10:41.370Z,23.10
2022-12-09T12:11:41.342Z,27.20
2022-12-09T12:12:41.587Z,28.80
2022-12-09T12:13:41.420Z,32.20
2022-12-09T12:14:41.352Z,29.70
2022-12-09T12:15:41.303Z,29.00
2022-12-09T12:16:41.437Z,25.00
2022-12-09T12:17:41.420Z,23.70
2022-12-09T12:18:41.351Z,65.40
2022-12-09T12:19:41.309Z,32.70
2022-12-09T12:20:41.343Z,22.40
2022-12-09T12:21:41.270Z,30.20
2022-12-09T12:22:41.314Z,30.30
2022-12-09T12:23:41.349Z,41.00
2022-12-09T12:24:41.357Z,40.60
2022-12-09T12:25:41.241Z,37.80
2022-12-09T12:26:41.260Z,28.90
2022-12-09T12:27:41.254Z,34.50
2022-12-09T12:28:41.271Z,47.50
2022-12-09T12:29:41.300Z,21.30
2022-12-09T12:30:41.261Z,18.30
2022-12-09T12:31:41.286Z,19.40
2022-12-09T12:32:41.206Z,28.40
2022-12-09T12:34:07.816Z,27.70
2022-12-09T12:34:43.228Z,20.80
2022-12-09T12:35:41.274Z,22.30
2022-12-09T12:36:41.175Z,25.90
2022-12-09T12:37:41.198Z,19.10
2022-12-09T12:38:41.179Z,23.10
2022-12-09T12:39:41.160Z,27.80
2022-12-09T12:40:41.237Z,26.10
2022-12-09T12:41:41.216Z,23.80
2022-12-09T12:42:41.196Z,26.20
2022-12-09T12:43:41.206Z,29.80
2022-12-09T12:44:41.151Z,21.90
2022-12-09T12:45:41.171Z,22.50
2022-12-09T12:46:41.172Z,49.60
2022-12-09T12:47:41.114Z,44.60
2022-12-09T12:48:41.204Z,23.00
2022-12-09T12:49:41.105Z,19.90
2022-12-09T12:50:41.098Z,38.10